SJX712 VVTS-RCTP
Flight info
| Callsign | SJX712 |
|---|---|
| Flight time | 2h 51m |
| Altitude | 41000 |
| Route | PATMA W12 PCA G221 BUNTA A1 IKELA/N0487F410 DCT MORTU DCT NOBAD DCT KAPLI G86 ANDRE A577 TNN |
| Aircraft | A359/H-SDE2E3GHIJ1J3J4J5LM1ORWXY/LB1D1 |
Departure
| Time | 2026-05-06 09:45 |
|---|---|
| Airport | Tan Son Nhat International Airport (VVTS) |
Arrival
| Time | 2026-05-06 12:36 |
|---|---|
| Airport | Taiwan Taoyuan International Airport (RCTP) |
| Time | Latitude | Longitude | Altitude | Speed | Heading |
|---|---|---|---|---|---|
| 2026-05-06 09:15 | 10.81603 | 106.66129 | 33 ft | 0 kts | 96° |
| 2026-05-06 09:34 | 10.81605 | 106.66116 | 33 ft | 2 kts | 96° |
| 2026-05-06 09:34 | 10.81606 | 106.66105 | 33 ft | 0 kts | 96° |
| 2026-05-06 09:34 | 10.81607 | 106.66091 | 33 ft | 2 kts | 84° |
| 2026-05-06 09:35 | 10.81603 | 106.66077 | 33 ft | 2 kts | 65° |
| 2026-05-06 09:35 | 10.81596 | 106.66064 | 33 ft | 2 kts | 50° |
| 2026-05-06 09:35 | 10.81586 | 106.66053 | 33 ft | 2 kts | 35° |
| 2026-05-06 09:35 | 10.81572 | 106.66045 | 33 ft | 2 kts | 19° |
| 2026-05-06 09:36 | 10.81560 | 106.66042 | 33 ft | 0 kts | 6° |
| 2026-05-06 09:36 | 10.81556 | 106.66042 | 33 ft | 0 kts | 4° |
| 2026-05-06 09:37 | 10.81557 | 106.66042 | 33 ft | 0 kts | 4° |
| 2026-05-06 09:39 | 10.81565 | 106.66042 | 33 ft | 2 kts | 4° |
| 2026-05-06 09:39 | 10.81591 | 106.66045 | 33 ft | 5 kts | 5° |
| 2026-05-06 09:40 | 10.81632 | 106.66048 | 33 ft | 6 kts | 6° |
| 2026-05-06 09:40 | 10.81685 | 106.66052 | 33 ft | 8 kts | 3° |
| 2026-05-06 09:40 | 10.81812 | 106.66065 | 33 ft | 10 kts | 5° |
| 2026-05-06 09:41 | 10.81871 | 106.66103 | 33 ft | 11 kts | 62° |
| 2026-05-06 09:41 | 10.81903 | 106.66180 | 33 ft | 12 kts | 68° |
| 2026-05-06 09:41 | 10.81936 | 106.66267 | 33 ft | 13 kts | 69° |
| 2026-05-06 09:41 | 10.81971 | 106.66361 | 33 ft | 14 kts | 68° |
| 2026-05-06 09:42 | 10.82009 | 106.66462 | 33 ft | 15 kts | 68° |
| 2026-05-06 09:42 | 10.82050 | 106.66570 | 34 ft | 16 kts | 69° |
| 2026-05-06 09:42 | 10.82092 | 106.66682 | 35 ft | 17 kts | 69° |
| 2026-05-06 09:42 | 10.82134 | 106.66793 | 37 ft | 17 kts | 68° |
| 2026-05-06 09:43 | 10.82175 | 106.66903 | 38 ft | 13 kts | 69° |
| 2026-05-06 09:43 | 10.82212 | 106.66989 | 39 ft | 11 kts | 51° |
| 2026-05-06 09:43 | 10.82291 | 106.66994 | 37 ft | 12 kts | 336° |
| 2026-05-06 09:43 | 10.82347 | 106.66943 | 37 ft | 6 kts | 310° |
| 2026-05-06 09:44 | 10.82355 | 106.66902 | 37 ft | 6 kts | 253° |
| 2026-05-06 09:44 | 10.82327 | 106.66831 | 37 ft | 29 kts | 248° |
| 2026-05-06 09:44 | 10.82156 | 106.66382 | 37 ft | 103 kts | 249° |
| 2026-05-06 09:44 | 10.81820 | 106.65492 | 74 ft | 159 kts | 249° |
| 2026-05-06 09:45 | 10.81427 | 106.64459 | 684 ft | 162 kts | 249° |
| 2026-05-06 09:45 | 10.81035 | 106.63383 | 1367 ft | 163 kts | 250° |
| 2026-05-06 09:45 | 10.80642 | 106.62303 | 1988 ft | 166 kts | 250° |
| 2026-05-06 09:45 | 10.80225 | 106.61161 | 2347 ft | 180 kts | 250° |
| 2026-05-06 09:46 | 10.79774 | 106.59931 | 2708 ft | 195 kts | 249° |
| 2026-05-06 09:46 | 10.79310 | 106.58597 | 3136 ft | 207 kts | 257° |
| 2026-05-06 09:46 | 10.79479 | 106.57110 | 3489 ft | 223 kts | 297° |
| 2026-05-06 09:46 | 10.80559 | 106.55950 | 3851 ft | 241 kts | 332° |
| 2026-05-06 09:47 | 10.82237 | 106.55595 | 4284 ft | 258 kts | 5° |
| 2026-05-06 09:47 | 10.84041 | 106.55856 | 4893 ft | 270 kts | 8° |
| 2026-05-06 09:47 | 10.85910 | 106.56129 | 5679 ft | 276 kts | 8° |
| 2026-05-06 09:47 | 10.87817 | 106.56403 | 6532 ft | 279 kts | 8° |
| 2026-05-06 09:48 | 10.89720 | 106.56675 | 7378 ft | 283 kts | 8° |
| 2026-05-06 09:48 | 10.91683 | 106.56955 | 8239 ft | 286 kts | 8° |
| 2026-05-06 09:48 | 10.93633 | 106.57233 | 9081 ft | 290 kts | 8° |
| 2026-05-06 09:48 | 10.95634 | 106.57519 | 9926 ft | 293 kts | 8° |
| 2026-05-06 09:49 | 10.97648 | 106.57833 | 10644 ft | 301 kts | 14° |
| 2026-05-06 09:49 | 10.99570 | 106.58804 | 11054 ft | 319 kts | 39° |
| 2026-05-06 09:49 | 11.01263 | 106.60340 | 11519 ft | 335 kts | 43° |
| 2026-05-06 09:49 | 11.02983 | 106.62000 | 11933 ft | 351 kts | 43° |
| 2026-05-06 09:50 | 11.04794 | 106.63728 | 12314 ft | 368 kts | 43° |
| 2026-05-06 09:50 | 11.06706 | 106.65523 | 12662 ft | 384 kts | 43° |
| 2026-05-06 09:50 | 11.08717 | 106.67381 | 13083 ft | 397 kts | 42° |
| 2026-05-06 09:50 | 11.10801 | 106.69289 | 13741 ft | 403 kts | 42° |
| 2026-05-06 09:51 | 11.12894 | 106.71185 | 14440 ft | 406 kts | 41° |
| 2026-05-06 09:51 | 11.14983 | 106.73071 | 15100 ft | 410 kts | 41° |
| 2026-05-06 09:51 | 11.17115 | 106.74998 | 15742 ft | 414 kts | 41° |
| 2026-05-06 09:51 | 11.19293 | 106.76968 | 16383 ft | 418 kts | 41° |
| 2026-05-06 09:52 | 11.21453 | 106.78922 | 16996 ft | 422 kts | 41° |
| 2026-05-06 09:52 | 11.23642 | 106.80905 | 17600 ft | 425 kts | 41° |
| 2026-05-06 09:52 | 11.25847 | 106.82902 | 18188 ft | 429 kts | 41° |
| 2026-05-06 09:52 | 11.28099 | 106.84943 | 18768 ft | 433 kts | 41° |
| 2026-05-06 09:53 | 11.30325 | 106.86961 | 19322 ft | 436 kts | 41° |
| 2026-05-06 09:53 | 11.32614 | 106.89036 | 19875 ft | 440 kts | 41° |
| 2026-05-06 09:53 | 11.34883 | 106.91093 | 20408 ft | 443 kts | 41° |
| 2026-05-06 09:53 | 11.37203 | 106.93198 | 20938 ft | 447 kts | 41° |
| 2026-05-06 09:54 | 11.39500 | 106.95282 | 21447 ft | 450 kts | 41° |
| 2026-05-06 09:54 | 11.41836 | 106.97402 | 21949 ft | 453 kts | 41° |
| 2026-05-06 09:54 | 11.44208 | 106.99555 | 22444 ft | 457 kts | 41° |
| 2026-05-06 09:54 | 11.46570 | 107.01699 | 22925 ft | 460 kts | 41° |
| 2026-05-06 09:55 | 11.48968 | 107.03878 | 23398 ft | 463 kts | 41° |
| 2026-05-06 09:55 | 11.51357 | 107.06048 | 23850 ft | 466 kts | 41° |
| 2026-05-06 09:55 | 11.53785 | 107.08253 | 24291 ft | 469 kts | 41° |
| 2026-05-06 09:55 | 11.56218 | 107.10465 | 24714 ft | 472 kts | 41° |
| 2026-05-06 09:56 | 11.58688 | 107.12709 | 25128 ft | 475 kts | 41° |
| 2026-05-06 09:56 | 11.61138 | 107.14937 | 25518 ft | 478 kts | 41° |
| 2026-05-06 09:56 | 11.63617 | 107.17191 | 25899 ft | 481 kts | 41° |
| 2026-05-06 09:56 | 11.66117 | 107.19465 | 26267 ft | 484 kts | 41° |
| 2026-05-06 09:57 | 11.68619 | 107.21741 | 26619 ft | 486 kts | 41° |
| 2026-05-06 09:57 | 11.71155 | 107.24049 | 26962 ft | 489 kts | 41° |
| 2026-05-06 09:57 | 11.73697 | 107.26363 | 27292 ft | 491 kts | 41° |
| 2026-05-06 09:57 | 11.76224 | 107.28664 | 27608 ft | 493 kts | 41° |
| 2026-05-06 09:58 | 11.78789 | 107.30999 | 27917 ft | 496 kts | 41° |
| 2026-05-06 09:58 | 11.81336 | 107.33320 | 28215 ft | 498 kts | 41° |
| 2026-05-06 09:58 | 11.83929 | 107.35682 | 28542 ft | 499 kts | 41° |
| 2026-05-06 09:58 | 11.86517 | 107.38041 | 28974 ft | 498 kts | 41° |
| 2026-05-06 09:59 | 11.89090 | 107.40385 | 29422 ft | 496 kts | 41° |
| 2026-05-06 09:59 | 11.91634 | 107.42704 | 29841 ft | 495 kts | 41° |
| 2026-05-06 09:59 | 11.94209 | 107.45052 | 30243 ft | 494 kts | 41° |
| 2026-05-06 09:59 | 11.96752 | 107.47370 | 30627 ft | 494 kts | 41° |
| 2026-05-06 10:00 | 11.99305 | 107.49698 | 31006 ft | 493 kts | 41° |
| 2026-05-06 10:00 | 12.01844 | 107.52014 | 31376 ft | 492 kts | 41° |
| 2026-05-06 10:00 | 12.04398 | 107.54344 | 31743 ft | 492 kts | 41° |
| 2026-05-06 10:00 | 12.06931 | 107.56657 | 32101 ft | 491 kts | 41° |
| 2026-05-06 10:01 | 12.09472 | 107.58976 | 32455 ft | 490 kts | 41° |
| 2026-05-06 10:01 | 12.12016 | 107.61292 | 32803 ft | 489 kts | 41° |
| 2026-05-06 10:01 | 12.14540 | 107.63582 | 33141 ft | 489 kts | 41° |
| 2026-05-06 10:01 | 12.17051 | 107.65864 | 33471 ft | 488 kts | 42° |
| 2026-05-06 10:02 | 12.19576 | 107.68178 | 33797 ft | 487 kts | 42° |
| 2026-05-06 10:02 | 12.22090 | 107.70486 | 34114 ft | 487 kts | 42° |
| 2026-05-06 10:02 | 12.24594 | 107.72782 | 34423 ft | 486 kts | 42° |
| 2026-05-06 10:02 | 12.27112 | 107.75086 | 34726 ft | 485 kts | 42° |
| 2026-05-06 10:03 | 12.29610 | 107.77368 | 35018 ft | 485 kts | 42° |
| 2026-05-06 10:03 | 12.32128 | 107.79671 | 35307 ft | 484 kts | 42° |
| 2026-05-06 10:03 | 12.34618 | 107.81962 | 35585 ft | 484 kts | 42° |
| 2026-05-06 10:03 | 12.37076 | 107.84279 | 35857 ft | 483 kts | 43° |
| 2026-05-06 10:04 | 12.39525 | 107.86610 | 36120 ft | 482 kts | 43° |
| 2026-05-06 10:04 | 12.41947 | 107.88915 | 36373 ft | 482 kts | 43° |
| 2026-05-06 10:04 | 12.44414 | 107.91260 | 36630 ft | 482 kts | 43° |
| 2026-05-06 10:04 | 12.46849 | 107.93571 | 36887 ft | 481 kts | 43° |
| 2026-05-06 10:05 | 12.49285 | 107.95880 | 37144 ft | 480 kts | 43° |
| 2026-05-06 10:05 | 12.51724 | 107.98191 | 37391 ft | 480 kts | 43° |
| 2026-05-06 10:05 | 12.54159 | 108.00497 | 37619 ft | 480 kts | 43° |
| 2026-05-06 10:05 | 12.56599 | 108.02808 | 37833 ft | 480 kts | 43° |
| 2026-05-06 10:06 | 12.59045 | 108.05125 | 38035 ft | 480 kts | 43° |
| 2026-05-06 10:06 | 12.61491 | 108.07443 | 38231 ft | 480 kts | 43° |
| 2026-05-06 10:06 | 12.63922 | 108.09740 | 38418 ft | 480 kts | 42° |
| 2026-05-06 10:06 | 12.66440 | 108.11961 | 38601 ft | 480 kts | 39° |
| 2026-05-06 10:07 | 12.69060 | 108.14046 | 38777 ft | 480 kts | 36° |
| 2026-05-06 10:07 | 12.71786 | 108.16025 | 38951 ft | 480 kts | 34° |
| 2026-05-06 10:07 | 12.74538 | 108.17975 | 39120 ft | 480 kts | 34° |
| 2026-05-06 10:07 | 12.77277 | 108.19906 | 39265 ft | 480 kts | 34° |
| 2026-05-06 10:08 | 12.79989 | 108.21820 | 39388 ft | 481 kts | 34° |
| 2026-05-06 10:08 | 12.82756 | 108.23777 | 39506 ft | 482 kts | 34° |
| 2026-05-06 10:08 | 12.85505 | 108.25724 | 39621 ft | 483 kts | 34° |
| 2026-05-06 10:08 | 12.88231 | 108.27657 | 39733 ft | 483 kts | 34° |
| 2026-05-06 10:09 | 12.90988 | 108.29614 | 39843 ft | 484 kts | 34° |
| 2026-05-06 10:09 | 12.93774 | 108.31591 | 39951 ft | 485 kts | 34° |
| 2026-05-06 10:09 | 12.96531 | 108.33549 | 40053 ft | 485 kts | 34° |
| 2026-05-06 10:09 | 12.99272 | 108.35497 | 40152 ft | 486 kts | 34° |
| 2026-05-06 10:10 | 13.04840 | 108.39455 | 40342 ft | 487 kts | 34° |
| 2026-05-06 10:10 | 13.10375 | 108.43391 | 40520 ft | 488 kts | 34° |
| 2026-05-06 10:11 | 13.15958 | 108.47342 | 40686 ft | 489 kts | 34° |
| 2026-05-06 10:11 | 13.21545 | 108.51307 | 40844 ft | 490 kts | 34° |
| 2026-05-06 10:12 | 13.27110 | 108.55269 | 40961 ft | 492 kts | 34° |
| 2026-05-06 10:12 | 13.32720 | 108.59269 | 40970 ft | 492 kts | 34° |
| 2026-05-06 10:13 | 13.38327 | 108.63264 | 40972 ft | 492 kts | 34° |
| 2026-05-06 10:13 | 13.43918 | 108.67259 | 40972 ft | 492 kts | 35° |
| 2026-05-06 10:14 | 13.49491 | 108.71262 | 40972 ft | 492 kts | 35° |
| 2026-05-06 10:14 | 13.55099 | 108.75273 | 40972 ft | 492 kts | 35° |
| 2026-05-06 10:15 | 13.60683 | 108.79260 | 40972 ft | 492 kts | 34° |
| 2026-05-06 10:15 | 13.66285 | 108.83259 | 40972 ft | 492 kts | 34° |
| 2026-05-06 10:16 | 13.71903 | 108.87270 | 40972 ft | 492 kts | 34° |
| 2026-05-06 10:16 | 13.77487 | 108.91256 | 40972 ft | 492 kts | 34° |
| 2026-05-06 10:17 | 13.83120 | 108.95280 | 40972 ft | 492 kts | 34° |
| 2026-05-06 10:17 | 13.88767 | 108.99193 | 40971 ft | 492 kts | 31° |
| 2026-05-06 10:18 | 13.94845 | 109.02386 | 40972 ft | 492 kts | 22° |
| 2026-05-06 10:18 | 14.01263 | 109.04607 | 40973 ft | 492 kts | 14° |
| 2026-05-06 10:19 | 14.07982 | 109.05859 | 40974 ft | 492 kts | 7° |
| 2026-05-06 10:19 | 14.14753 | 109.06664 | 40972 ft | 492 kts | 6° |
| 2026-05-06 10:20 | 14.21518 | 109.07454 | 40972 ft | 492 kts | 6° |
| 2026-05-06 10:20 | 14.28303 | 109.08266 | 40972 ft | 492 kts | 6° |
| 2026-05-06 10:21 | 14.35084 | 109.09086 | 40972 ft | 492 kts | 6° |
| 2026-05-06 10:21 | 14.41843 | 109.09907 | 40972 ft | 492 kts | 7° |
| 2026-05-06 10:22 | 14.48639 | 109.10733 | 40972 ft | 492 kts | 7° |
| 2026-05-06 10:22 | 14.55370 | 109.11553 | 40972 ft | 492 kts | 7° |
| 2026-05-06 10:23 | 14.62146 | 109.12379 | 40972 ft | 492 kts | 7° |
| 2026-05-06 10:23 | 14.68913 | 109.13203 | 40972 ft | 492 kts | 7° |
| 2026-05-06 10:24 | 14.75711 | 109.14032 | 40972 ft | 492 kts | 7° |
| 2026-05-06 10:24 | 14.82446 | 109.14854 | 40972 ft | 492 kts | 7° |
| 2026-05-06 10:25 | 14.89262 | 109.15687 | 40972 ft | 492 kts | 7° |
| 2026-05-06 10:25 | 14.95994 | 109.16509 | 40972 ft | 492 kts | 7° |
| 2026-05-06 10:26 | 15.02784 | 109.17339 | 40972 ft | 492 kts | 7° |
| 2026-05-06 10:26 | 15.09561 | 109.18168 | 40972 ft | 492 kts | 7° |
| 2026-05-06 10:27 | 15.16340 | 109.18995 | 40972 ft | 492 kts | 6° |
| 2026-05-06 10:27 | 15.23123 | 109.19822 | 40972 ft | 492 kts | 6° |
| 2026-05-06 10:28 | 15.29894 | 109.20651 | 40972 ft | 492 kts | 7° |
| 2026-05-06 10:28 | 15.36660 | 109.21480 | 40972 ft | 492 kts | 7° |
| 2026-05-06 10:29 | 15.43427 | 109.22309 | 40972 ft | 492 kts | 7° |
| 2026-05-06 10:29 | 15.50201 | 109.23139 | 40972 ft | 492 kts | 6° |
| 2026-05-06 10:30 | 15.56979 | 109.23969 | 40972 ft | 492 kts | 7° |
| 2026-05-06 10:30 | 15.63740 | 109.24801 | 40972 ft | 492 kts | 7° |
| 2026-05-06 10:31 | 15.70487 | 109.25633 | 40972 ft | 492 kts | 7° |
| 2026-05-06 10:31 | 15.77270 | 109.26465 | 40972 ft | 492 kts | 6° |
| 2026-05-06 10:32 | 15.84028 | 109.27293 | 40972 ft | 492 kts | 6° |
| 2026-05-06 10:32 | 15.90801 | 109.28123 | 40972 ft | 492 kts | 6° |
| 2026-05-06 10:33 | 15.97586 | 109.28956 | 40972 ft | 492 kts | 6° |
| 2026-05-06 10:33 | 16.04374 | 109.29788 | 40972 ft | 492 kts | 6° |
| 2026-05-06 10:34 | 16.11129 | 109.30617 | 40972 ft | 492 kts | 6° |
| 2026-05-06 10:34 | 16.17897 | 109.31445 | 40972 ft | 492 kts | 6° |
| 2026-05-06 10:35 | 16.24661 | 109.32275 | 40972 ft | 492 kts | 6° |
| 2026-05-06 10:35 | 16.31444 | 109.33108 | 40972 ft | 492 kts | 6° |
| 2026-05-06 10:36 | 16.38116 | 109.33929 | 40972 ft | 492 kts | 6° |
| 2026-05-06 10:36 | 16.44920 | 109.34767 | 40972 ft | 492 kts | 6° |
| 2026-05-06 10:37 | 16.51681 | 109.35600 | 40972 ft | 492 kts | 6° |
| 2026-05-06 10:37 | 16.58443 | 109.36433 | 40972 ft | 492 kts | 6° |
| 2026-05-06 10:38 | 16.65214 | 109.37267 | 40972 ft | 492 kts | 6° |
| 2026-05-06 10:38 | 16.72001 | 109.38115 | 40970 ft | 492 kts | 8° |
| 2026-05-06 10:39 | 16.78540 | 109.40003 | 40973 ft | 492 kts | 23° |
| 2026-05-06 10:39 | 16.84409 | 109.43586 | 40973 ft | 492 kts | 38° |
| 2026-05-06 10:40 | 16.89219 | 109.48642 | 40972 ft | 492 kts | 53° |
| 2026-05-06 10:40 | 16.93070 | 109.54484 | 40973 ft | 492 kts | 56° |
| 2026-05-06 10:41 | 16.96855 | 109.60431 | 40972 ft | 492 kts | 56° |
| 2026-05-06 10:41 | 17.00653 | 109.66359 | 40972 ft | 492 kts | 56° |
| 2026-05-06 10:42 | 17.04446 | 109.72279 | 40972 ft | 492 kts | 56° |
| 2026-05-06 10:42 | 17.08264 | 109.78221 | 40972 ft | 492 kts | 56° |
| 2026-05-06 10:43 | 17.12077 | 109.84130 | 40972 ft | 492 kts | 56° |
| 2026-05-06 10:44 | 17.17824 | 109.93003 | 40972 ft | 492 kts | 56° |
| 2026-05-06 10:44 | 17.21631 | 109.98917 | 40972 ft | 492 kts | 56° |
| 2026-05-06 10:45 | 17.25430 | 110.04829 | 40972 ft | 492 kts | 56° |
| 2026-05-06 10:45 | 17.29249 | 110.10780 | 40973 ft | 496 kts | 56° |
| 2026-05-06 10:46 | 17.33102 | 110.16788 | 40972 ft | 499 kts | 56° |
| 2026-05-06 10:46 | 17.36967 | 110.22817 | 40972 ft | 500 kts | 56° |
| 2026-05-06 10:47 | 17.40839 | 110.28865 | 40972 ft | 500 kts | 56° |
| 2026-05-06 10:47 | 17.44696 | 110.34850 | 40972 ft | 500 kts | 56° |
| 2026-05-06 10:48 | 17.48610 | 110.40879 | 40972 ft | 500 kts | 56° |
| 2026-05-06 10:48 | 17.52490 | 110.46857 | 40972 ft | 500 kts | 56° |
| 2026-05-06 10:49 | 17.56394 | 110.52879 | 40972 ft | 500 kts | 56° |
| 2026-05-06 10:49 | 17.60287 | 110.58890 | 40972 ft | 500 kts | 56° |
| 2026-05-06 10:50 | 17.64169 | 110.64890 | 40972 ft | 500 kts | 56° |
| 2026-05-06 10:50 | 17.68071 | 110.70953 | 40972 ft | 500 kts | 56° |
| 2026-05-06 10:51 | 17.71941 | 110.76971 | 40972 ft | 500 kts | 56° |
| 2026-05-06 10:51 | 17.75819 | 110.82989 | 40972 ft | 500 kts | 56° |
| 2026-05-06 10:52 | 17.79698 | 110.89010 | 40972 ft | 500 kts | 56° |
| 2026-05-06 10:52 | 17.83589 | 110.95054 | 40972 ft | 500 kts | 56° |
| 2026-05-06 10:53 | 17.87465 | 111.01077 | 40972 ft | 500 kts | 56° |
| 2026-05-06 10:53 | 17.91341 | 111.07106 | 40972 ft | 500 kts | 56° |
| 2026-05-06 10:54 | 17.95218 | 111.13142 | 40972 ft | 500 kts | 56° |
| 2026-05-06 10:54 | 17.99097 | 111.19187 | 40972 ft | 500 kts | 56° |
| 2026-05-06 10:55 | 18.02985 | 111.25251 | 40972 ft | 500 kts | 56° |
| 2026-05-06 10:55 | 18.06855 | 111.31293 | 40972 ft | 500 kts | 56° |
| 2026-05-06 10:56 | 18.10717 | 111.37325 | 40972 ft | 500 kts | 56° |
| 2026-05-06 10:56 | 18.14609 | 111.43366 | 40972 ft | 500 kts | 56° |
| 2026-05-06 10:57 | 18.18487 | 111.49404 | 40972 ft | 500 kts | 56° |
| 2026-05-06 10:57 | 18.22366 | 111.55473 | 40972 ft | 500 kts | 56° |
| 2026-05-06 10:58 | 18.26216 | 111.61507 | 40972 ft | 500 kts | 56° |
| 2026-05-06 10:58 | 18.30086 | 111.67590 | 40972 ft | 500 kts | 56° |
| 2026-05-06 10:59 | 18.33935 | 111.73669 | 40972 ft | 500 kts | 56° |
| 2026-05-06 10:59 | 18.37779 | 111.79730 | 40972 ft | 500 kts | 56° |
| 2026-05-06 11:00 | 18.41624 | 111.85787 | 40972 ft | 500 kts | 56° |
| 2026-05-06 11:00 | 18.45482 | 111.91866 | 40972 ft | 500 kts | 56° |
| 2026-05-06 11:01 | 18.49335 | 111.97942 | 40972 ft | 500 kts | 56° |
| 2026-05-06 11:01 | 18.53189 | 112.04024 | 40972 ft | 500 kts | 56° |
| 2026-05-06 11:02 | 18.57042 | 112.10107 | 40972 ft | 500 kts | 56° |
| 2026-05-06 11:02 | 18.60880 | 112.16170 | 40972 ft | 500 kts | 56° |
| 2026-05-06 11:03 | 18.64735 | 112.22289 | 40971 ft | 500 kts | 57° |
| 2026-05-06 11:03 | 18.68193 | 112.28603 | 40973 ft | 500 kts | 62° |
| 2026-05-06 11:04 | 18.71416 | 112.35088 | 40972 ft | 500 kts | 62° |
| 2026-05-06 11:04 | 18.74639 | 112.41598 | 40972 ft | 500 kts | 62° |
| 2026-05-06 11:05 | 18.77848 | 112.48064 | 40972 ft | 500 kts | 62° |
| 2026-05-06 11:05 | 18.81060 | 112.54536 | 40972 ft | 500 kts | 62° |
| 2026-05-06 11:06 | 18.84293 | 112.61053 | 40972 ft | 500 kts | 62° |
| 2026-05-06 11:06 | 18.87495 | 112.67520 | 40972 ft | 501 kts | 63° |
| 2026-05-06 11:07 | 18.90572 | 112.73764 | 40972 ft | 501 kts | 62° |
| 2026-05-06 11:07 | 18.93776 | 112.80259 | 40972 ft | 501 kts | 62° |
| 2026-05-06 11:08 | 18.96978 | 112.86748 | 40972 ft | 501 kts | 62° |
| 2026-05-06 11:08 | 19.00204 | 112.93287 | 40972 ft | 501 kts | 62° |
| 2026-05-06 11:09 | 19.03394 | 112.99758 | 40972 ft | 501 kts | 62° |
| 2026-05-06 11:09 | 19.06605 | 113.06279 | 40972 ft | 501 kts | 62° |
| 2026-05-06 11:10 | 19.09811 | 113.12795 | 40972 ft | 501 kts | 62° |
| 2026-05-06 11:10 | 19.13036 | 113.19308 | 40972 ft | 501 kts | 62° |
| 2026-05-06 11:11 | 19.16241 | 113.25788 | 40972 ft | 501 kts | 62° |
| 2026-05-06 11:11 | 19.19453 | 113.32320 | 40972 ft | 501 kts | 62° |
| 2026-05-06 11:12 | 19.22638 | 113.38818 | 40972 ft | 501 kts | 62° |
| 2026-05-06 11:12 | 19.25834 | 113.45349 | 40972 ft | 500 kts | 62° |
| 2026-05-06 11:13 | 19.29016 | 113.51862 | 40972 ft | 500 kts | 62° |
| 2026-05-06 11:13 | 19.32211 | 113.58406 | 40972 ft | 500 kts | 62° |
| 2026-05-06 11:14 | 19.35386 | 113.64919 | 40972 ft | 500 kts | 62° |
| 2026-05-06 11:14 | 19.38550 | 113.71442 | 40972 ft | 500 kts | 63° |
| 2026-05-06 11:15 | 19.41727 | 113.77996 | 40972 ft | 500 kts | 63° |
| 2026-05-06 11:15 | 19.44893 | 113.84519 | 40972 ft | 500 kts | 63° |
| 2026-05-06 11:16 | 19.48064 | 113.91053 | 40972 ft | 500 kts | 63° |
| 2026-05-06 11:16 | 19.51234 | 113.97589 | 40972 ft | 500 kts | 63° |
| 2026-05-06 11:17 | 19.54394 | 114.04113 | 40972 ft | 500 kts | 63° |
| 2026-05-06 11:17 | 19.57568 | 114.10672 | 40972 ft | 500 kts | 63° |
| 2026-05-06 11:18 | 19.60737 | 114.17227 | 40972 ft | 500 kts | 63° |
| 2026-05-06 11:18 | 19.63885 | 114.23744 | 40972 ft | 500 kts | 63° |
| 2026-05-06 11:19 | 19.67058 | 114.30313 | 40972 ft | 500 kts | 63° |
| 2026-05-06 11:19 | 19.70207 | 114.36844 | 40972 ft | 500 kts | 63° |
| 2026-05-06 11:20 | 19.73351 | 114.43398 | 40972 ft | 500 kts | 63° |
| 2026-05-06 11:20 | 19.76501 | 114.49983 | 40972 ft | 500 kts | 63° |
| 2026-05-06 11:21 | 19.79631 | 114.56520 | 40972 ft | 500 kts | 63° |
| 2026-05-06 11:21 | 19.82778 | 114.63092 | 40972 ft | 500 kts | 63° |
| 2026-05-06 11:22 | 19.85923 | 114.69682 | 40972 ft | 500 kts | 63° |
| 2026-05-06 11:22 | 19.89060 | 114.76275 | 40972 ft | 500 kts | 63° |
| 2026-05-06 11:23 | 19.92181 | 114.82825 | 40972 ft | 500 kts | 63° |
| 2026-05-06 11:23 | 19.95322 | 114.89414 | 40972 ft | 500 kts | 63° |
| 2026-05-06 11:24 | 19.98450 | 114.95982 | 40972 ft | 500 kts | 63° |
| 2026-05-06 11:24 | 20.01594 | 115.02593 | 40972 ft | 500 kts | 63° |
| 2026-05-06 11:25 | 20.04706 | 115.09139 | 40972 ft | 500 kts | 63° |
| 2026-05-06 11:25 | 20.07835 | 115.15730 | 40972 ft | 500 kts | 63° |
| 2026-05-06 11:26 | 20.10976 | 115.22343 | 40972 ft | 500 kts | 63° |
| 2026-05-06 11:26 | 20.14123 | 115.28923 | 40972 ft | 500 kts | 63° |
| 2026-05-06 11:27 | 20.17249 | 115.35500 | 40972 ft | 500 kts | 63° |
| 2026-05-06 11:27 | 20.20367 | 115.42094 | 40972 ft | 500 kts | 63° |
| 2026-05-06 11:28 | 20.23474 | 115.48679 | 40972 ft | 500 kts | 63° |
| 2026-05-06 11:28 | 20.26595 | 115.55308 | 40972 ft | 500 kts | 63° |
| 2026-05-06 11:29 | 20.29694 | 115.61899 | 40972 ft | 500 kts | 63° |
| 2026-05-06 11:29 | 20.32793 | 115.68507 | 40972 ft | 500 kts | 64° |
| 2026-05-06 11:30 | 20.35894 | 115.75143 | 40972 ft | 500 kts | 63° |
| 2026-05-06 11:30 | 20.38986 | 115.81752 | 40972 ft | 500 kts | 63° |
| 2026-05-06 11:31 | 20.42076 | 115.88354 | 40972 ft | 500 kts | 63° |
| 2026-05-06 11:31 | 20.45175 | 115.94979 | 40972 ft | 500 kts | 63° |
| 2026-05-06 11:32 | 20.48276 | 116.01615 | 40972 ft | 500 kts | 63° |
| 2026-05-06 11:32 | 20.51369 | 116.08242 | 40972 ft | 500 kts | 63° |
| 2026-05-06 11:33 | 20.54462 | 116.14877 | 40972 ft | 500 kts | 63° |
| 2026-05-06 11:33 | 20.57550 | 116.21510 | 40972 ft | 500 kts | 63° |
| 2026-05-06 11:34 | 20.60635 | 116.28143 | 40972 ft | 500 kts | 63° |
| 2026-05-06 11:34 | 20.63714 | 116.34773 | 40972 ft | 501 kts | 63° |
| 2026-05-06 11:35 | 20.66777 | 116.41376 | 40972 ft | 501 kts | 63° |
| 2026-05-06 11:35 | 20.69857 | 116.48025 | 40972 ft | 501 kts | 63° |
| 2026-05-06 11:36 | 20.72928 | 116.54659 | 40972 ft | 501 kts | 63° |
| 2026-05-06 11:36 | 20.76016 | 116.61343 | 40972 ft | 501 kts | 63° |
| 2026-05-06 11:37 | 20.79066 | 116.67956 | 40972 ft | 501 kts | 64° |
| 2026-05-06 11:37 | 20.82137 | 116.74648 | 40972 ft | 501 kts | 64° |
| 2026-05-06 11:38 | 20.85193 | 116.81299 | 40972 ft | 501 kts | 64° |
| 2026-05-06 11:38 | 20.88250 | 116.87949 | 40972 ft | 501 kts | 64° |
| 2026-05-06 11:39 | 20.91311 | 116.94613 | 40972 ft | 501 kts | 64° |
| 2026-05-06 11:39 | 20.94364 | 117.01265 | 40972 ft | 501 kts | 64° |
| 2026-05-06 11:40 | 20.97433 | 117.07962 | 40972 ft | 501 kts | 64° |
| 2026-05-06 11:40 | 21.00492 | 117.14641 | 40972 ft | 501 kts | 64° |
| 2026-05-06 11:41 | 21.03526 | 117.21275 | 40972 ft | 501 kts | 64° |
| 2026-05-06 11:41 | 21.06576 | 117.27947 | 40972 ft | 500 kts | 64° |
| 2026-05-06 11:42 | 21.09629 | 117.34626 | 40972 ft | 500 kts | 64° |
| 2026-05-06 11:42 | 21.12690 | 117.41290 | 40972 ft | 500 kts | 64° |
| 2026-05-06 11:43 | 21.15580 | 117.48023 | 40973 ft | 500 kts | 68° |
| 2026-05-06 11:43 | 21.17853 | 117.55072 | 40974 ft | 500 kts | 74° |
| 2026-05-06 11:44 | 21.20448 | 117.65848 | 40973 ft | 500 kts | 76° |
| 2026-05-06 11:44 | 21.22139 | 117.73055 | 40972 ft | 500 kts | 76° |
| 2026-05-06 11:45 | 21.23839 | 117.80264 | 40972 ft | 500 kts | 76° |
| 2026-05-06 11:45 | 21.25544 | 117.87479 | 40972 ft | 500 kts | 76° |
| 2026-05-06 11:46 | 21.27238 | 117.94648 | 40972 ft | 500 kts | 76° |
| 2026-05-06 11:46 | 21.28946 | 118.01894 | 40972 ft | 500 kts | 76° |
| 2026-05-06 11:47 | 21.30640 | 118.09087 | 40972 ft | 500 kts | 76° |
| 2026-05-06 11:47 | 21.32343 | 118.16339 | 40972 ft | 500 kts | 76° |
| 2026-05-06 11:48 | 21.34026 | 118.23512 | 40972 ft | 500 kts | 76° |
| 2026-05-06 11:48 | 21.35719 | 118.30742 | 40972 ft | 500 kts | 76° |
| 2026-05-06 11:49 | 21.37410 | 118.37976 | 40972 ft | 500 kts | 76° |
| 2026-05-06 11:49 | 21.39085 | 118.45184 | 40972 ft | 500 kts | 76° |
| 2026-05-06 11:50 | 21.40753 | 118.52396 | 40972 ft | 500 kts | 76° |
| 2026-05-06 11:50 | 21.42424 | 118.59620 | 40972 ft | 500 kts | 76° |
| 2026-05-06 11:51 | 21.44094 | 118.66849 | 40972 ft | 500 kts | 76° |
| 2026-05-06 11:51 | 21.45753 | 118.74067 | 40972 ft | 500 kts | 76° |
| 2026-05-06 11:52 | 21.47416 | 118.81310 | 40972 ft | 500 kts | 76° |
| 2026-05-06 11:52 | 21.49080 | 118.88560 | 40972 ft | 500 kts | 76° |
| 2026-05-06 11:53 | 21.50738 | 118.95789 | 40972 ft | 500 kts | 76° |
| 2026-05-06 11:53 | 21.52392 | 119.03019 | 40972 ft | 500 kts | 76° |
| 2026-05-06 11:54 | 21.54043 | 119.10248 | 40972 ft | 500 kts | 76° |
| 2026-05-06 11:54 | 21.55693 | 119.17486 | 40972 ft | 500 kts | 76° |
| 2026-05-06 11:55 | 21.57335 | 119.24709 | 40972 ft | 500 kts | 76° |
| 2026-05-06 11:55 | 21.58985 | 119.31979 | 40972 ft | 500 kts | 76° |
| 2026-05-06 11:56 | 21.60620 | 119.39195 | 40972 ft | 500 kts | 76° |
| 2026-05-06 11:56 | 21.62264 | 119.46471 | 40972 ft | 500 kts | 76° |
| 2026-05-06 11:57 | 21.63902 | 119.53728 | 40972 ft | 500 kts | 76° |
| 2026-05-06 11:57 | 21.65527 | 119.60950 | 40972 ft | 500 kts | 76° |
| 2026-05-06 11:58 | 21.67158 | 119.68213 | 40972 ft | 500 kts | 76° |
| 2026-05-06 11:58 | 21.68777 | 119.75449 | 40972 ft | 500 kts | 76° |
| 2026-05-06 11:59 | 21.70398 | 119.82684 | 40972 ft | 500 kts | 76° |
| 2026-05-06 11:59 | 21.72316 | 119.89848 | 40969 ft | 500 kts | 65° |
| 2026-05-06 12:00 | 21.74018 | 119.93102 | 40972 ft | 500 kts | 54° |
| 2026-05-06 12:00 | 21.75798 | 119.95440 | 40972 ft | 500 kts | 45° |
| 2026-05-06 12:00 | 21.78455 | 119.97889 | 40974 ft | 500 kts | 34° |
| 2026-05-06 12:00 | 21.81451 | 119.99714 | 40973 ft | 500 kts | 23° |
| 2026-05-06 12:01 | 21.84730 | 120.00899 | 40973 ft | 500 kts | 12° |
| 2026-05-06 12:01 | 21.88153 | 120.01529 | 40977 ft | 501 kts | 8° |
| 2026-05-06 12:01 | 21.95052 | 120.02467 | 40973 ft | 500 kts | 7° |
| 2026-05-06 12:02 | 22.01918 | 120.03448 | 40972 ft | 500 kts | 8° |
| 2026-05-06 12:02 | 22.08761 | 120.04496 | 40972 ft | 500 kts | 8° |
| 2026-05-06 12:03 | 22.15651 | 120.05559 | 40972 ft | 500 kts | 8° |
| 2026-05-06 12:03 | 22.22524 | 120.06611 | 40969 ft | 500 kts | 8° |
| 2026-05-06 12:04 | 22.25905 | 120.07129 | 40823 ft | 496 kts | 8° |
| 2026-05-06 12:04 | 22.29327 | 120.07655 | 40340 ft | 495 kts | 8° |
| 2026-05-06 12:04 | 22.32711 | 120.08175 | 39688 ft | 496 kts | 8° |
| 2026-05-06 12:04 | 22.36081 | 120.08692 | 39008 ft | 496 kts | 8° |
| 2026-05-06 12:05 | 22.39483 | 120.09212 | 38308 ft | 496 kts | 8° |
| 2026-05-06 12:05 | 22.42895 | 120.09734 | 37596 ft | 496 kts | 8° |
| 2026-05-06 12:05 | 22.46279 | 120.10252 | 36885 ft | 496 kts | 8° |
| 2026-05-06 12:05 | 22.49680 | 120.10771 | 36162 ft | 496 kts | 8° |
| 2026-05-06 12:06 | 22.53091 | 120.11293 | 35379 ft | 498 kts | 8° |
| 2026-05-06 12:06 | 22.56527 | 120.11818 | 34601 ft | 499 kts | 8° |
| 2026-05-06 12:06 | 22.59909 | 120.12335 | 33840 ft | 499 kts | 8° |
| 2026-05-06 12:06 | 22.63324 | 120.12858 | 33063 ft | 500 kts | 8° |
| 2026-05-06 12:07 | 22.66765 | 120.13384 | 32267 ft | 500 kts | 8° |
| 2026-05-06 12:07 | 22.70212 | 120.13911 | 31452 ft | 501 kts | 8° |
| 2026-05-06 12:07 | 22.73612 | 120.14431 | 30630 ft | 502 kts | 8° |
| 2026-05-06 12:07 | 22.77050 | 120.14957 | 29809 ft | 502 kts | 8° |
| 2026-05-06 12:08 | 22.80508 | 120.15488 | 29262 ft | 503 kts | 8° |
| 2026-05-06 12:08 | 22.83939 | 120.16020 | 29004 ft | 503 kts | 8° |
| 2026-05-06 12:08 | 22.90842 | 120.17097 | 28983 ft | 504 kts | 8° |
| 2026-05-06 12:09 | 22.97782 | 120.18178 | 28981 ft | 504 kts | 8° |
| 2026-05-06 12:09 | 23.04671 | 120.19247 | 28980 ft | 504 kts | 8° |
| 2026-05-06 12:10 | 23.11619 | 120.20327 | 28980 ft | 504 kts | 8° |
| 2026-05-06 12:10 | 23.18518 | 120.21278 | 28979 ft | 504 kts | 6° |
| 2026-05-06 12:11 | 23.25481 | 120.22081 | 28978 ft | 504 kts | 6° |
| 2026-05-06 12:11 | 23.32420 | 120.22887 | 28977 ft | 504 kts | 6° |
| 2026-05-06 12:12 | 23.39345 | 120.23708 | 28970 ft | 504 kts | 6° |
| 2026-05-06 12:12 | 23.42817 | 120.24120 | 28777 ft | 504 kts | 6° |
| 2026-05-06 12:12 | 23.46315 | 120.24538 | 28099 ft | 501 kts | 6° |
| 2026-05-06 12:13 | 23.49710 | 120.24943 | 27429 ft | 497 kts | 6° |
| 2026-05-06 12:13 | 23.53146 | 120.25352 | 26831 ft | 490 kts | 6° |
| 2026-05-06 12:13 | 23.56494 | 120.25751 | 26207 ft | 485 kts | 6° |
| 2026-05-06 12:13 | 23.59787 | 120.26144 | 25611 ft | 480 kts | 6° |
| 2026-05-06 12:14 | 23.63083 | 120.26538 | 24963 ft | 475 kts | 6° |
| 2026-05-06 12:14 | 23.66346 | 120.26943 | 24396 ft | 469 kts | 7° |
| 2026-05-06 12:14 | 23.69502 | 120.27496 | 23874 ft | 463 kts | 11° |
| 2026-05-06 12:14 | 23.72651 | 120.28263 | 23350 ft | 457 kts | 14° |
| 2026-05-06 12:15 | 23.75679 | 120.29209 | 22840 ft | 451 kts | 17° |
| 2026-05-06 12:15 | 23.78639 | 120.30225 | 22351 ft | 446 kts | 17° |
| 2026-05-06 12:15 | 23.81539 | 120.31237 | 21861 ft | 441 kts | 18° |
| 2026-05-06 12:15 | 23.84430 | 120.32248 | 21371 ft | 436 kts | 18° |
| 2026-05-06 12:16 | 23.87321 | 120.33256 | 20880 ft | 431 kts | 17° |
| 2026-05-06 12:16 | 23.90138 | 120.34236 | 20401 ft | 427 kts | 17° |
| 2026-05-06 12:16 | 23.92956 | 120.35214 | 19916 ft | 423 kts | 17° |
| 2026-05-06 12:16 | 23.95697 | 120.36166 | 19444 ft | 419 kts | 17° |
| 2026-05-06 12:17 | 23.98483 | 120.37132 | 18962 ft | 415 kts | 17° |
| 2026-05-06 12:17 | 24.01203 | 120.38076 | 18489 ft | 411 kts | 17° |
| 2026-05-06 12:17 | 24.03904 | 120.39014 | 18020 ft | 408 kts | 17° |
| 2026-05-06 12:17 | 24.06592 | 120.39947 | 17549 ft | 405 kts | 17° |
| 2026-05-06 12:18 | 24.09261 | 120.40873 | 17082 ft | 402 kts | 17° |
| 2026-05-06 12:18 | 24.11894 | 120.41786 | 16620 ft | 399 kts | 17° |
| 2026-05-06 12:18 | 24.14515 | 120.42692 | 16160 ft | 396 kts | 17° |
| 2026-05-06 12:18 | 24.17140 | 120.43600 | 15694 ft | 393 kts | 17° |
| 2026-05-06 12:19 | 24.19723 | 120.44496 | 15233 ft | 390 kts | 17° |
| 2026-05-06 12:19 | 24.22275 | 120.45383 | 14775 ft | 388 kts | 17° |
| 2026-05-06 12:19 | 24.24819 | 120.46268 | 14314 ft | 385 kts | 17° |
| 2026-05-06 12:19 | 24.27372 | 120.47156 | 13844 ft | 383 kts | 17° |
| 2026-05-06 12:20 | 24.29894 | 120.48035 | 13386 ft | 380 kts | 17° |
| 2026-05-06 12:20 | 24.32396 | 120.48907 | 12928 ft | 378 kts | 17° |
| 2026-05-06 12:20 | 24.34890 | 120.49777 | 12471 ft | 375 kts | 17° |
| 2026-05-06 12:20 | 24.37363 | 120.50639 | 12017 ft | 372 kts | 17° |
| 2026-05-06 12:21 | 24.39807 | 120.51492 | 11567 ft | 369 kts | 17° |
| 2026-05-06 12:21 | 24.42228 | 120.52338 | 11130 ft | 366 kts | 17° |
| 2026-05-06 12:21 | 24.44605 | 120.53168 | 10875 ft | 355 kts | 17° |
| 2026-05-06 12:21 | 24.46902 | 120.53970 | 10745 ft | 341 kts | 17° |
| 2026-05-06 12:22 | 24.49140 | 120.54752 | 10604 ft | 329 kts | 17° |
| 2026-05-06 12:22 | 24.51280 | 120.55500 | 10473 ft | 317 kts | 17° |
| 2026-05-06 12:22 | 24.53340 | 120.56220 | 10356 ft | 306 kts | 17° |
| 2026-05-06 12:22 | 24.55331 | 120.56915 | 10254 ft | 295 kts | 17° |
| 2026-05-06 12:23 | 24.57222 | 120.57577 | 10168 ft | 284 kts | 17° |
| 2026-05-06 12:23 | 24.59090 | 120.58231 | 10094 ft | 277 kts | 17° |
| 2026-05-06 12:23 | 24.60916 | 120.58870 | 10013 ft | 275 kts | 17° |
| 2026-05-06 12:23 | 24.62739 | 120.59508 | 9722 ft | 275 kts | 17° |
| 2026-05-06 12:24 | 24.64553 | 120.60144 | 9454 ft | 274 kts | 17° |
| 2026-05-06 12:24 | 24.66349 | 120.60813 | 9189 ft | 273 kts | 23° |
| 2026-05-06 12:24 | 24.68010 | 120.61800 | 8929 ft | 272 kts | 34° |
| 2026-05-06 12:24 | 24.69484 | 120.63103 | 8670 ft | 270 kts | 41° |
| 2026-05-06 12:25 | 24.70866 | 120.64468 | 8418 ft | 269 kts | 42° |
| 2026-05-06 12:25 | 24.72241 | 120.65850 | 8166 ft | 268 kts | 43° |
| 2026-05-06 12:25 | 24.73613 | 120.67234 | 7916 ft | 267 kts | 42° |
| 2026-05-06 12:25 | 24.74989 | 120.68610 | 7666 ft | 266 kts | 42° |
| 2026-05-06 12:26 | 24.76353 | 120.69965 | 7420 ft | 264 kts | 42° |
| 2026-05-06 12:26 | 24.77719 | 120.71315 | 7173 ft | 263 kts | 42° |
| 2026-05-06 12:26 | 24.79070 | 120.72648 | 6930 ft | 262 kts | 42° |
| 2026-05-06 12:26 | 24.80422 | 120.73978 | 6686 ft | 261 kts | 42° |
| 2026-05-06 12:27 | 24.81779 | 120.75313 | 6441 ft | 261 kts | 42° |
| 2026-05-06 12:27 | 24.83123 | 120.76635 | 6199 ft | 260 kts | 42° |
| 2026-05-06 12:27 | 24.84459 | 120.77949 | 5958 ft | 259 kts | 42° |
| 2026-05-06 12:27 | 24.85800 | 120.79269 | 5715 ft | 258 kts | 42° |
| 2026-05-06 12:28 | 24.87130 | 120.80581 | 5475 ft | 257 kts | 42° |
| 2026-05-06 12:28 | 24.88467 | 120.81898 | 5235 ft | 257 kts | 42° |
| 2026-05-06 12:28 | 24.89801 | 120.83214 | 4995 ft | 256 kts | 42° |
| 2026-05-06 12:28 | 24.91083 | 120.84562 | 4735 ft | 256 kts | 53° |
| 2026-05-06 12:29 | 24.91806 | 120.86332 | 4468 ft | 255 kts | 82° |
| 2026-05-06 12:29 | 24.91824 | 120.88243 | 4376 ft | 246 kts | 93° |
| 2026-05-06 12:29 | 24.91715 | 120.90081 | 4352 ft | 234 kts | 94° |
| 2026-05-06 12:29 | 24.91607 | 120.91814 | 4320 ft | 223 kts | 94° |
| 2026-05-06 12:30 | 24.91513 | 120.93491 | 4284 ft | 212 kts | 93° |
| 2026-05-06 12:30 | 24.91429 | 120.95118 | 4250 ft | 215 kts | 93° |
| 2026-05-06 12:30 | 24.91349 | 120.96774 | 4206 ft | 215 kts | 93° |
| 2026-05-06 12:30 | 24.91271 | 120.98404 | 4150 ft | 215 kts | 93° |
| 2026-05-06 12:31 | 24.91234 | 121.00058 | 4040 ft | 216 kts | 81° |
| 2026-05-06 12:31 | 24.91699 | 121.01627 | 3818 ft | 215 kts | 60° |
| 2026-05-06 12:31 | 24.92542 | 121.02977 | 3605 ft | 214 kts | 50° |
| 2026-05-06 12:31 | 24.93507 | 121.04187 | 3424 ft | 211 kts | 47° |
| 2026-05-06 12:32 | 24.94492 | 121.05370 | 3251 ft | 208 kts | 47° |
| 2026-05-06 12:32 | 24.95447 | 121.06535 | 3078 ft | 205 kts | 48° |
| 2026-05-06 12:32 | 24.96389 | 121.07711 | 2895 ft | 201 kts | 49° |
| 2026-05-06 12:32 | 24.97293 | 121.08858 | 2727 ft | 198 kts | 49° |
| 2026-05-06 12:33 | 24.98176 | 121.09985 | 2634 ft | 189 kts | 49° |
| 2026-05-06 12:33 | 24.99014 | 121.11057 | 2564 ft | 178 kts | 49° |
| 2026-05-06 12:33 | 24.99803 | 121.12065 | 2346 ft | 170 kts | 49° |
| 2026-05-06 12:33 | 25.00561 | 121.13033 | 2121 ft | 167 kts | 49° |
| 2026-05-06 12:34 | 25.01327 | 121.14010 | 1899 ft | 166 kts | 49° |
| 2026-05-06 12:34 | 25.02076 | 121.14964 | 1680 ft | 166 kts | 49° |
| 2026-05-06 12:34 | 25.02831 | 121.15925 | 1461 ft | 165 kts | 49° |
| 2026-05-06 12:34 | 25.03575 | 121.16872 | 1245 ft | 160 kts | 49° |
| 2026-05-06 12:35 | 25.04270 | 121.17757 | 1026 ft | 147 kts | 49° |
| 2026-05-06 12:35 | 25.04925 | 121.18590 | 832 ft | 140 kts | 49° |
| 2026-05-06 12:35 | 25.05560 | 121.19398 | 656 ft | 140 kts | 49° |
| 2026-05-06 12:35 | 25.06193 | 121.20203 | 478 ft | 139 kts | 49° |
| 2026-05-06 12:36 | 25.06833 | 121.21016 | 294 ft | 139 kts | 49° |
| 2026-05-06 12:36 | 25.07461 | 121.21815 | 128 ft | 135 kts | 49° |
| 2026-05-06 12:36 | 25.07971 | 121.22460 | 119 ft | 81 kts | 49° |
| 2026-05-06 12:36 | 25.08203 | 121.22757 | 119 ft | 35 kts | 49° |
| 2026-05-06 12:37 | 25.08358 | 121.22958 | 119 ft | 27 kts | 56° |
| 2026-05-06 12:37 | 25.08432 | 121.23123 | 119 ft | 20 kts | 72° |
| 2026-05-06 12:37 | 25.08459 | 121.23238 | 119 ft | 14 kts | 78° |
| 2026-05-06 12:37 | 25.08434 | 121.23325 | 119 ft | 13 kts | 150° |
| 2026-05-06 12:38 | 25.08365 | 121.23287 | 119 ft | 12 kts | 236° |
| 2026-05-06 12:38 | 25.08305 | 121.23206 | 119 ft | 14 kts | 231° |
| 2026-05-06 12:38 | 25.08239 | 121.23119 | 119 ft | 15 kts | 229° |
| 2026-05-06 12:38 | 25.08163 | 121.23025 | 119 ft | 17 kts | 228° |
| 2026-05-06 12:39 | 25.08104 | 121.22949 | 119 ft | 7 kts | 230° |
| 2026-05-06 12:39 | 25.08061 | 121.22919 | 119 ft | 8 kts | 186° |
| 2026-05-06 12:39 | 25.08015 | 121.22953 | 119 ft | 9 kts | 106° |
| 2026-05-06 12:39 | 25.08040 | 121.23023 | 119 ft | 8 kts | 53° |
| 2026-05-06 12:40 | 25.08076 | 121.23076 | 119 ft | 4 kts | 60° |
| 2026-05-06 12:40 | 25.08074 | 121.23086 | 119 ft | 1 kts | 124° |
| 2026-05-06 12:40 | 25.08061 | 121.23095 | 119 ft | 3 kts | 148° |
| 2026-05-06 12:40 | 25.08038 | 121.23113 | 119 ft | 4 kts | 143° |
| 2026-05-06 12:41 | 25.08014 | 121.23133 | 119 ft | 2 kts | 142° |
| 2026-05-06 12:41 | 25.08000 | 121.23145 | 119 ft | 1 kts | 141° |
| 2026-05-06 12:41 | 25.07994 | 121.23151 | 119 ft | 1 kts | 141° |
| 2026-05-06 12:41 | 25.07993 | 121.23151 | 119 ft | 0 kts | 141° |